createdAt,value
2017-11-13T00:00:01.201Z,27.8
2017-11-13T00:00:59.593Z,27.8
2017-11-13T00:01:59.657Z,27.8
2017-11-13T00:02:59.473Z,27.8
2017-11-13T00:04:01.152Z,27.8
2017-11-13T00:04:59.487Z,27.8
2017-11-13T00:06:01.418Z,27.8
2017-11-13T00:07:01.534Z,27.8
2017-11-13T00:08:01.255Z,27.8
2017-11-13T00:09:01.728Z,27.8
2017-11-13T00:09:59.811Z,27.8
2017-11-13T00:11:01.758Z,27.8
2017-11-13T00:12:01.487Z,27.8
2017-11-13T00:13:01.635Z,27.8
2017-11-13T00:14:02.000Z,27.8
2017-11-13T00:15:01.749Z,27.8
2017-11-13T00:16:01.754Z,27.8
2017-11-13T00:17:00.466Z,27.9
2017-11-13T00:18:00.467Z,27.8
2017-11-13T00:19:00.550Z,27.8
2017-11-13T00:20:00.365Z,27.8
2017-11-13T00:21:02.352Z,27.8
2017-11-13T00:22:00.804Z,27.8
2017-11-13T00:23:02.380Z,27.8
2017-11-13T00:24:00.571Z,27.8
2017-11-13T00:25:00.860Z,27.8
2017-11-13T00:26:02.376Z,27.8
2017-11-13T00:27:02.671Z,27.8
2017-11-13T00:28:00.975Z,27.8
2017-11-13T00:29:02.746Z,27.8
2017-11-13T00:30:02.733Z,27.8
2017-11-13T00:31:01.123Z,27.8
2017-11-13T00:32:02.512Z,27.8
2017-11-13T00:33:02.531Z,27.8
2017-11-13T00:34:02.899Z,27.8
2017-11-13T00:35:01.200Z,27.8
2017-11-13T00:36:01.235Z,27.8
2017-11-13T00:37:01.276Z,27.8
2017-11-13T00:38:01.355Z,27.8
2017-11-13T00:39:03.003Z,27.8
2017-11-13T00:40:01.139Z,27.8
2017-11-13T00:41:01.238Z,27.8
2017-11-13T00:42:01.614Z,27.8
2017-11-13T00:43:02.969Z,27.8
2017-11-13T00:44:01.696Z,27.8
2017-11-13T00:45:03.073Z,27.8
2017-11-13T00:46:01.472Z,27.8
2017-11-13T00:47:03.078Z,27.8
2017-11-13T00:48:01.860Z,27.8
2017-11-13T00:49:03.537Z,27.7
2017-11-13T00:50:01.938Z,27.8
2017-11-13T00:51:03.333Z,27.8
2017-11-13T00:52:02.084Z,27.8
2017-11-13T00:53:03.699Z,27.8
2017-11-13T00:54:03.831Z,27.8
2017-11-13T00:55:03.811Z,27.8
2017-11-13T00:56:03.912Z,27.8
2017-11-13T00:57:04.042Z,27.8
2017-11-13T00:58:02.107Z,27.8
2017-11-13T00:59:04.000Z,27.8
2017-11-13T01:00:02.130Z,27.8
2017-11-13T01:01:02.154Z,27.8
2017-11-13T01:02:04.174Z,27.8
2017-11-13T01:03:02.549Z,27.8
2017-11-13T01:04:03.838Z,27.8
2017-11-13T01:05:02.305Z,27.8
2017-11-13T01:06:03.963Z,27.7
2017-11-13T01:07:02.368Z,27.8
2017-11-13T01:08:02.382Z,27.8
2017-11-13T01:09:04.346Z,27.7
2017-11-13T01:10:04.039Z,27.8
2017-11-13T01:11:02.781Z,27.8
2017-11-13T01:12:04.177Z,27.8
2017-11-13T01:13:04.542Z,27.7
2017-11-13T01:14:03.009Z,27.7
2017-11-13T01:15:03.021Z,27.7
2017-11-13T01:16:02.931Z,27.7
2017-11-13T01:17:04.880Z,27.7
2017-11-13T01:18:04.500Z,27.7
2017-11-13T01:19:03.144Z,27.7
2017-11-13T01:20:04.552Z,27.7
2017-11-13T01:21:04.869Z,27.7
2017-11-13T01:22:04.622Z,27.7
2017-11-13T01:23:04.725Z,27.8
2017-11-13T01:24:05.102Z,27.7
2017-11-13T01:25:03.460Z,27.8
2017-11-13T01:26:03.304Z,27.8
2017-11-13T01:27:05.261Z,27.8
2017-11-13T01:28:03.354Z,27.8
2017-11-13T01:29:03.651Z,27.7
2017-11-13T01:30:03.674Z,27.7
2017-11-13T01:31:03.498Z,27.7
2017-11-13T01:32:03.823Z,27.7
2017-11-13T01:33:05.524Z,27.7
2017-11-13T01:34:05.634Z,27.7
2017-11-13T01:35:03.728Z,27.7
2017-11-13T01:36:04.036Z,27.7
2017-11-13T01:37:04.072Z,27.7
2017-11-13T01:38:05.975Z,27.8
2017-11-13T01:39:05.829Z,27.7
2017-11-13T01:40:05.851Z,27.8
2017-11-13T01:41:04.288Z,27.8
2017-11-13T01:42:05.780Z,27.8
2017-11-13T01:43:05.852Z,27.8
2017-11-13T01:44:06.154Z,27.8
2017-11-13T01:45:04.540Z,27.8
2017-11-13T01:46:04.280Z,27.8
2017-11-13T01:47:04.382Z,27.8
2017-11-13T01:48:06.013Z,27.8
2017-11-13T01:49:04.790Z,27.8
2017-11-13T01:50:06.407Z,27.8
2017-11-13T01:51:04.621Z,27.8
2017-11-13T01:52:06.506Z,27.8
2017-11-13T01:53:04.660Z,27.8
2017-11-13T01:54:04.952Z,27.8
2017-11-13T01:55:06.341Z,27.7
2017-11-13T01:56:06.356Z,27.7
2017-11-13T01:57:06.404Z,27.7
2017-11-13T01:58:04.853Z,27.7
2017-11-13T01:59:06.502Z,27.7
2017-11-13T02:00:06.590Z,27.7
2017-11-13T02:01:05.363Z,27.7
2017-11-13T02:02:05.381Z,27.7
2017-11-13T02:03:05.382Z,27.8
2017-11-13T02:04:06.815Z,27.8
2017-11-13T02:05:05.181Z,27.8
2017-11-13T02:06:05.510Z,27.8
2017-11-13T02:07:06.919Z,27.8
2017-11-13T02:08:06.917Z,27.8
2017-11-13T02:09:07.220Z,27.8
2017-11-13T02:10:05.418Z,27.7
2017-11-13T02:11:07.355Z,27.8
2017-11-13T02:12:05.510Z,27.8
2017-11-13T02:13:05.540Z,27.8
2017-11-13T02:14:07.190Z,27.8
2017-11-13T02:15:05.586Z,27.8
2017-11-13T02:16:05.637Z,27.8
2017-11-13T02:17:07.590Z,27.7
2017-11-13T02:18:06.018Z,27.8
2017-11-13T02:19:07.333Z,27.8
2017-11-13T02:20:05.806Z,27.7
2017-11-13T02:21:06.120Z,27.7
2017-11-13T02:22:07.763Z,27.7
2017-11-13T02:23:05.982Z,27.7
2017-11-13T02:24:06.238Z,27.7
2017-11-13T02:25:08.024Z,27.7
2017-11-13T02:26:06.333Z,27.7
2017-11-13T02:27:07.698Z,27.7
2017-11-13T02:28:07.734Z,27.7
2017-11-13T02:29:06.177Z,27.7
2017-11-13T02:30:06.494Z,27.7
2017-11-13T02:31:06.523Z,27.7
2017-11-13T02:32:06.258Z,27.7
2017-11-13T02:33:08.281Z,27.7
2017-11-13T02:34:06.426Z,27.7
2017-11-13T02:35:06.429Z,27.7
2017-11-13T02:36:08.380Z,27.7
2017-11-13T02:37:06.520Z,27.6
2017-11-13T02:38:08.143Z,27.7
2017-11-13T02:39:08.163Z,27.7
2017-11-13T02:40:08.296Z,27.7
2017-11-13T02:41:07.021Z,27.7
2017-11-13T02:42:07.022Z,27.7
2017-11-13T02:43:08.741Z,27.7
2017-11-13T02:44:08.432Z,27.7
2017-11-13T02:45:08.888Z,27.7
2017-11-13T02:46:07.320Z,27.7
2017-11-13T02:47:07.027Z,27.7
2017-11-13T02:48:08.675Z,27.7
2017-11-13T02:49:07.141Z,27.7
2017-11-13T02:50:07.147Z,27.7
2017-11-13T02:51:07.473Z,27.7
2017-11-13T02:52:07.552Z,27.7
2017-11-13T02:53:07.626Z,27.7
2017-11-13T02:54:09.290Z,27.7
2017-11-13T02:55:07.467Z,27.7
2017-11-13T02:56:09.063Z,27.7
2017-11-13T02:57:09.101Z,27.7
2017-11-13T02:58:07.605Z,27.7
2017-11-13T02:59:09.183Z,27.7
2017-11-13T03:00:07.982Z,27.7
2017-11-13T03:01:07.789Z,27.7
2017-11-13T03:02:09.390Z,27.7
2017-11-13T03:03:09.407Z,27.7
2017-11-13T03:04:08.135Z,27.7
2017-11-13T03:05:08.259Z,27.7
2017-11-13T03:06:09.539Z,27.7
2017-11-13T03:07:08.329Z,27.7
2017-11-13T03:08:09.658Z,27.7
2017-11-13T03:09:08.347Z,27.7
2017-11-13T03:10:08.147Z,27.7
2017-11-13T03:11:09.804Z,27.7
2017-11-13T03:12:09.860Z,27.7
2017-11-13T03:13:09.863Z,27.7
2017-11-13T03:14:09.861Z,27.7
2017-11-13T03:15:10.014Z,27.7
2017-11-13T03:16:10.342Z,27.7
2017-11-13T03:17:10.436Z,27.7
2017-11-13T03:18:10.396Z,27.7
2017-11-13T03:19:08.545Z,27.7
2017-11-13T03:20:10.171Z,27.7
2017-11-13T03:21:10.590Z,27.7
2017-11-13T03:22:09.044Z,27.7
2017-11-13T03:23:10.657Z,27.7
2017-11-13T03:24:09.069Z,27.7
2017-11-13T03:25:08.763Z,27.7
2017-11-13T03:26:10.468Z,27.7
2017-11-13T03:27:10.830Z,27.7
2017-11-13T03:28:10.558Z,27.7
2017-11-13T03:29:10.585Z,27.7
2017-11-13T03:30:09.073Z,27.7
2017-11-13T03:31:09.116Z,27.7
2017-11-13T03:32:09.184Z,27.7
2017-11-13T03:33:11.136Z,27.7
2017-11-13T03:34:11.158Z,27.7
2017-11-13T03:35:09.311Z,27.7
2017-11-13T03:36:09.333Z,27.7
2017-11-13T03:37:09.330Z,27.7
2017-11-13T03:38:09.424Z,27.7
2017-11-13T03:39:11.463Z,27.7
2017-11-13T03:40:09.583Z,27.7
2017-11-13T03:41:09.973Z,27.7
2017-11-13T03:42:11.729Z,27.7
2017-11-13T03:43:09.827Z,27.7
2017-11-13T03:44:09.851Z,27.7
2017-11-13T03:45:11.461Z,27.7
2017-11-13T03:46:10.212Z,27.7
2017-11-13T03:47:09.940Z,27.7
2017-11-13T03:48:10.230Z,27.7
2017-11-13T03:49:10.022Z,27.7
2017-11-13T03:50:10.446Z,27.7
2017-11-13T03:51:10.148Z,27.7
2017-11-13T03:52:12.089Z,27.7
2017-11-13T03:53:11.829Z,27.7
2017-11-13T03:54:11.912Z,27.7
2017-11-13T03:55:12.341Z,27.7
2017-11-13T03:56:10.764Z,27.7
2017-11-13T03:57:12.479Z,27.7
2017-11-13T03:58:10.511Z,27.7
2017-11-13T03:59:12.495Z,27.7
2017-11-13T04:00:12.208Z,27.7
2017-11-13T04:01:10.909Z,27.7
2017-11-13T04:02:12.243Z,27.7
2017-11-13T04:03:10.968Z,27.7
2017-11-13T04:08:00.545Z,27.6
2017-11-13T04:08:58.946Z,27.6
2017-11-13T04:09:59.290Z,27.6
2017-11-13T04:10:59.058Z,27.6
2017-11-13T04:12:01.021Z,27.6
2017-11-13T04:13:01.095Z,27.6
2017-11-13T04:14:01.179Z,27.6
2017-11-13T04:15:00.889Z,27.6
2017-11-13T04:16:00.847Z,27.6
2017-11-13T04:16:59.664Z,27.6
2017-11-13T04:17:59.411Z,27.6
2017-11-13T04:18:59.465Z,27.6
2017-11-13T04:19:59.774Z,27.6
2017-11-13T04:20:59.857Z,27.6
2017-11-13T04:21:59.924Z,27.7
2017-11-13T04:22:59.994Z,27.6
2017-11-13T04:24:01.716Z,27.7
2017-11-13T04:25:00.133Z,27.7
2017-11-13T04:26:01.865Z,27.7
2017-11-13T04:27:00.065Z,27.7
2017-11-13T04:28:01.868Z,27.7
2017-11-13T04:29:00.471Z,27.7
2017-11-13T04:30:00.151Z,27.7
2017-11-13T04:31:00.167Z,27.7
2017-11-13T04:32:00.260Z,27.7
2017-11-13T04:33:01.948Z,27.7
2017-11-13T04:34:00.341Z,27.7
2017-11-13T04:35:00.653Z,27.7
2017-11-13T04:36:00.693Z,27.7
2017-11-13T04:37:00.790Z,27.7
2017-11-13T04:38:00.812Z,27.7
2017-11-13T04:39:02.500Z,27.7
2017-11-13T04:40:02.233Z,27.7
2017-11-13T04:41:00.951Z,27.6
2017-11-13T04:42:02.695Z,27.6
2017-11-13T04:43:01.132Z,27.6
2017-11-13T04:44:01.143Z,27.6
2017-11-13T04:45:02.889Z,27.6
2017-11-13T04:46:02.942Z,27.6
2017-11-13T04:47:02.991Z,27.6
2017-11-13T04:48:01.357Z,27.6
2017-11-13T04:49:01.430Z,27.7
2017-11-13T04:50:01.227Z,27.6
2017-11-13T04:51:02.864Z,27.6
2017-11-13T04:52:01.652Z,27.6
2017-11-13T04:53:03.306Z,27.6
2017-11-13T04:54:03.034Z,27.6
2017-11-13T04:55:01.738Z,27.6
2017-11-13T04:56:01.525Z,27.6
2017-11-13T04:57:03.530Z,27.6
2017-11-13T04:58:03.249Z,27.7
2017-11-13T04:59:03.636Z,27.6
2017-11-13T05:00:01.713Z,27.7
2017-11-13T05:01:03.683Z,27.7
2017-11-13T05:02:03.420Z,27.7
2017-11-13T05:03:02.145Z,27.7
2017-11-13T05:04:02.218Z,27.7
2017-11-13T05:05:03.627Z,27.6
2017-11-13T05:06:02.032Z,27.7
2017-11-13T05:07:03.687Z,27.7
2017-11-13T05:08:02.109Z,27.7
2017-11-13T05:09:02.394Z,27.7
2017-11-13T05:10:02.201Z,27.7
2017-11-13T05:11:02.210Z,27.7
2017-11-13T05:12:02.497Z,27.7
2017-11-13T05:13:03.799Z,27.7
2017-11-13T05:14:02.267Z,27.7
2017-11-13T05:15:04.307Z,27.7
2017-11-13T05:16:02.753Z,27.6
2017-11-13T05:17:04.724Z,27.7
2017-11-13T05:18:04.593Z,27.7
2017-11-13T05:19:02.919Z,27.7
2017-11-13T05:20:04.632Z,27.7
2017-11-13T05:21:03.074Z,27.7
2017-11-13T05:22:02.779Z,27.7
2017-11-13T05:23:04.770Z,27.6
2017-11-13T05:24:04.539Z,27.6
2017-11-13T05:25:02.963Z,27.6
2017-11-13T05:26:04.581Z,27.6
2017-11-13T05:27:03.336Z,27.6
2017-11-13T05:28:03.379Z,27.7
2017-11-13T05:29:04.690Z,27.7
2017-11-13T05:30:05.054Z,27.7
2017-11-13T05:31:03.488Z,27.7
2017-11-13T05:32:04.908Z,27.6
2017-11-13T05:33:05.238Z,27.6
2017-11-13T05:34:03.416Z,27.6
2017-11-13T05:35:03.961Z,27.5
2017-11-13T05:36:03.792Z,27.5
2017-11-13T05:37:05.499Z,27.5
2017-11-13T05:38:05.185Z,27.5
2017-11-13T05:39:03.944Z,27.5
2017-11-13T05:40:05.620Z,27.5
2017-11-13T05:41:04.098Z,27.4
2017-11-13T05:42:05.699Z,27.4
2017-11-13T05:43:05.473Z,27.4
2017-11-13T05:44:04.184Z,27.4
2017-11-13T05:45:05.909Z,27.4
2017-11-13T05:46:04.394Z,27.4
2017-11-13T05:47:05.702Z,27.5
2017-11-13T05:48:04.453Z,27.5
2017-11-13T05:49:06.099Z,27.5
2017-11-13T05:50:05.824Z,27.5
2017-11-13T05:51:04.332Z,27.5
2017-11-13T05:52:04.629Z,27.5
2017-11-13T05:53:05.989Z,27.5
2017-11-13T05:54:06.088Z,27.5
2017-11-13T05:55:06.479Z,27.5
2017-11-13T05:56:06.231Z,27.5
2017-11-13T05:57:04.658Z,27.6
2017-11-13T05:58:06.600Z,27.6
2017-11-13T05:59:06.709Z,27.6
2017-11-13T06:00:04.769Z,27.6
2017-11-13T06:01:06.473Z,27.6
2017-11-13T06:02:05.459Z,27.5
2017-11-13T06:03:07.571Z,27.6
2017-11-13T06:04:06.962Z,27.6
2017-11-13T06:05:05.073Z,27.6
2017-11-13T06:06:05.364Z,27.6
2017-11-13T06:07:05.376Z,27.6
2017-11-13T06:08:06.162Z,27.6
2017-11-13T06:09:06.880Z,27.6
2017-11-13T06:10:08.207Z,27.6
2017-11-13T06:11:07.215Z,27.6
2017-11-13T06:12:07.672Z,27.6
2017-11-13T06:13:05.821Z,27.6
2017-11-13T06:14:05.867Z,27.6
2017-11-13T06:15:05.727Z,27.6
2017-11-13T06:16:06.058Z,27.7
2017-11-13T06:17:05.788Z,27.7
2017-11-13T06:18:06.057Z,27.7
2017-11-13T06:19:05.835Z,27.7
2017-11-13T06:20:09.103Z,27.7
2017-11-13T06:21:10.602Z,27.7
2017-11-13T06:22:10.710Z,27.7
2017-11-13T06:23:10.780Z,27.7
2017-11-13T06:24:09.339Z,27.7
2017-11-13T06:25:09.206Z,27.7
2017-11-13T06:26:09.350Z,27.7
2017-11-13T06:27:09.525Z,27.8
2017-11-13T06:28:11.142Z,27.7
2017-11-13T06:29:11.081Z,27.7
2017-11-13T06:30:09.671Z,27.7
2017-11-13T06:31:11.935Z,27.6
2017-11-13T06:32:13.238Z,27.7
2017-11-13T06:33:10.513Z,27.7
2017-11-13T06:34:11.455Z,27.7
2017-11-13T06:35:11.367Z,27.7
2017-11-13T06:36:09.886Z,27.8
2017-11-13T06:37:09.858Z,27.8
2017-11-13T06:38:09.952Z,27.8
2017-11-13T06:39:10.144Z,27.9
2017-11-13T06:40:11.622Z,27.9
2017-11-13T06:41:09.905Z,27.9
2017-11-13T06:42:11.718Z,28
2017-11-13T06:43:10.030Z,28
2017-11-13T06:44:11.853Z,28
2017-11-13T06:45:10.186Z,28
2017-11-13T06:46:10.261Z,28
2017-11-13T06:47:10.252Z,28.1
2017-11-13T06:48:12.155Z,28.1
2017-11-13T06:49:12.195Z,28.1
2017-11-13T06:50:12.153Z,28.2
2017-11-13T06:51:10.671Z,28.2
2017-11-13T06:52:10.812Z,28.2
2017-11-13T06:53:10.782Z,28.2
2017-11-13T06:54:12.344Z,28.2
2017-11-13T06:55:12.042Z,28.2
2017-11-13T06:56:12.506Z,28.3
2017-11-13T06:57:11.097Z,28.3
2017-11-13T06:58:11.206Z,28.3
2017-11-13T06:59:12.646Z,28.3
2017-11-13T07:00:12.656Z,28.3
2017-11-13T07:01:11.274Z,28.3
2017-11-13T07:02:13.099Z,28.3
2017-11-13T07:03:12.039Z,28.4
2017-11-13T07:04:12.728Z,28.4
2017-11-13T07:05:11.456Z,28.4
2017-11-13T07:06:11.259Z,28.4
2017-11-13T07:07:13.005Z,28.3
2017-11-13T07:08:12.882Z,28.3
2017-11-13T07:09:13.142Z,28.4
2017-11-13T07:10:13.228Z,28.4
2017-11-13T07:11:13.050Z,28.3
2017-11-13T07:12:13.224Z,28.4
2017-11-13T07:13:11.616Z,28.4
2017-11-13T07:14:13.254Z,28.4
2017-11-13T07:15:13.329Z,28.3
2017-11-13T07:16:11.648Z,28.3
2017-11-13T07:17:12.092Z,28.3
2017-11-13T07:18:13.700Z,28.3
2017-11-13T07:19:13.463Z,28.3
2017-11-13T07:20:11.891Z,28.3
2017-11-13T07:21:13.598Z,28.3
2017-11-13T07:22:13.792Z,28.3
2017-11-13T07:23:12.163Z,28.3
2017-11-13T07:24:12.254Z,28.3
2017-11-13T07:25:13.885Z,28.3
2017-11-13T07:26:13.713Z,28.3
2017-11-13T07:27:13.952Z,28.3
2017-11-13T07:28:14.038Z,28.3
2017-11-13T07:29:12.642Z,28.3
2017-11-13T07:30:14.237Z,28.3
2017-11-13T07:31:12.683Z,28.3
2017-11-13T07:32:12.757Z,28.4
2017-11-13T07:33:14.369Z,28.4
2017-11-13T07:34:13.010Z,28.4
2017-11-13T07:35:14.520Z,28.4
2017-11-13T07:36:14.670Z,28.5
2017-11-13T07:37:13.405Z,28.5
2017-11-13T07:38:14.486Z,28.5
2017-11-13T07:39:13.647Z,28.5
2017-11-13T07:40:12.794Z,28.5
2017-11-13T07:41:14.604Z,28.1
2017-11-13T07:42:12.972Z,27.7
2017-11-13T07:43:13.132Z,27.3
2017-11-13T07:44:13.412Z,27
2017-11-13T07:45:14.965Z,26.6
2017-11-13T07:46:13.357Z,26.2
2017-11-13T07:47:13.521Z,25.8
2017-11-13T07:48:14.122Z,25.5
2017-11-13T07:49:15.280Z,25.3
2017-11-13T07:50:15.266Z,25.1
2017-11-13T07:51:15.167Z,24.9
2017-11-13T07:52:15.258Z,24.7
2017-11-13T07:53:15.364Z,24.6
2017-11-13T07:54:13.643Z,24.4
2017-11-13T07:55:14.094Z,24.4
2017-11-13T07:56:14.009Z,24.2
2017-11-13T07:57:14.059Z,24.1
2017-11-13T07:58:15.660Z,24.1
2017-11-13T07:59:14.055Z,24
2017-11-13T08:00:15.679Z,24
2017-11-13T08:01:14.227Z,23.9
2017-11-13T08:02:14.051Z,24
2017-11-13T08:07:17.958Z,23.9
2017-11-13T08:08:14.525Z,23.9
2017-11-13T08:09:16.471Z,23.9
2017-11-13T08:10:14.532Z,23.9
2017-11-13T08:11:15.226Z,24
2017-11-13T08:12:14.757Z,23.9
2017-11-13T08:13:14.736Z,23.9
2017-11-13T08:14:16.420Z,23.8
2017-11-13T08:15:16.530Z,23.8
2017-11-13T08:16:16.595Z,23.7
2017-11-13T08:17:14.991Z,23.7
2017-11-13T08:18:14.767Z,23.7
2017-11-13T08:19:15.315Z,23.6
2017-11-13T08:20:15.127Z,23.6
2017-11-13T08:21:15.238Z,23.7
2017-11-13T08:22:14.942Z,23.7
2017-11-13T08:23:16.868Z,23.7
2017-11-13T08:24:15.530Z,23.7
2017-11-13T08:25:15.560Z,23.6
2017-11-13T08:26:17.317Z,23.6
2017-11-13T08:27:15.512Z,23.6
2017-11-13T08:28:17.270Z,23.5
2017-11-13T08:29:19.488Z,23.5
2017-11-13T08:30:17.431Z,23.5
2017-11-13T08:31:15.623Z,23.4
2017-11-13T08:32:17.502Z,23.4
2017-11-13T08:33:16.387Z,23.4
2017-11-13T08:34:17.765Z,23.5
2017-11-13T08:35:17.609Z,23.5
2017-11-13T08:36:16.647Z,23.5
2017-11-13T08:37:16.157Z,23.6
2017-11-13T08:38:17.758Z,23.7
2017-11-13T08:39:17.933Z,23.7
2017-11-13T08:40:16.381Z,23.8
2017-11-13T08:41:17.722Z,23.9
2017-11-13T08:42:16.083Z,23.8
2017-11-13T08:43:17.803Z,23.7
2017-11-13T08:44:17.886Z,23.7
2017-11-13T08:45:16.273Z,23.5
2017-11-13T08:46:18.124Z,23.5
2017-11-13T08:47:16.321Z,23.4
2017-11-13T08:48:18.257Z,23.3
2017-11-13T08:49:17.152Z,23.3
2017-11-13T08:50:18.233Z,23.4
2017-11-13T08:51:16.689Z,23.5
2017-11-13T08:52:16.694Z,23.5
2017-11-13T08:53:18.410Z,23.6
2017-11-13T08:54:17.436Z,23.7
2017-11-13T08:55:16.783Z,23.6
2017-11-13T08:56:18.803Z,23.7
2017-11-13T08:57:18.971Z,23.8
2017-11-13T08:58:17.071Z,23.9
2017-11-13T08:59:19.356Z,24
2017-11-13T09:00:17.741Z,24.2
2017-11-13T09:01:19.269Z,24.2
2017-11-13T09:02:19.063Z,24.3
2017-11-13T09:03:19.426Z,24.4
2017-11-13T09:04:19.083Z,24.5
2017-11-13T09:05:17.944Z,24.7
2017-11-13T09:06:20.036Z,24.8
2017-11-13T09:07:17.987Z,25
2017-11-13T09:08:17.580Z,25.2
2017-11-13T09:09:19.723Z,25.3
2017-11-13T09:10:19.336Z,25.4
2017-11-13T09:11:19.344Z,25.3
2017-11-13T09:12:18.688Z,25.3
2017-11-13T09:13:20.397Z,25.3
2017-11-13T09:14:18.301Z,25.3
2017-11-13T09:15:18.552Z,25.2
2017-11-13T09:16:18.181Z,25.3
2017-11-13T09:17:18.282Z,25.3
2017-11-13T09:18:19.963Z,25.4
2017-11-13T09:19:21.479Z,25.3
2017-11-13T09:20:19.061Z,25.2
2017-11-13T09:21:18.515Z,25.1
2017-11-13T09:22:19.917Z,25
2017-11-13T09:23:18.907Z,25
2017-11-13T09:24:19.962Z,24.9
2017-11-13T09:25:19.831Z,25
2017-11-13T09:26:20.593Z,25.1
2017-11-13T09:27:19.176Z,25.3
2017-11-13T09:28:20.126Z,25.4
2017-11-13T09:29:19.019Z,25.6
2017-11-13T09:30:20.652Z,25.9
2017-11-13T09:31:18.729Z,26.2
2017-11-13T09:32:20.341Z,26.4
2017-11-13T09:33:20.369Z,26.7
2017-11-13T09:34:20.496Z,26.8
2017-11-13T09:35:20.811Z,26.9
2017-11-13T09:36:20.979Z,27
2017-11-13T09:37:19.316Z,27.2
2017-11-13T09:38:21.465Z,27.4
2017-11-13T09:39:21.144Z,27.5
2017-11-13T09:40:22.073Z,27.6
2017-11-13T09:41:20.501Z,27.7
2017-11-13T09:42:21.571Z,27.7
2017-11-13T09:43:21.555Z,27.6
2017-11-13T09:44:21.670Z,27.7
2017-11-13T09:45:20.178Z,27.9
2017-11-13T09:46:19.804Z,28
2017-11-13T09:47:21.417Z,28
2017-11-13T09:48:21.630Z,28
2017-11-13T09:49:21.284Z,27.9
2017-11-13T09:50:20.133Z,27.9
2017-11-13T09:51:21.482Z,28
2017-11-13T09:52:21.701Z,28.1
2017-11-13T09:53:21.664Z,28.1
2017-11-13T09:54:20.556Z,28.1
2017-11-13T09:55:20.892Z,28.1
2017-11-13T09:56:20.550Z,27.9
2017-11-13T09:57:20.351Z,27.7
2017-11-13T09:58:20.567Z,27.7
2017-11-13T09:59:23.136Z,27.7
2017-11-13T10:00:20.465Z,27.7
2017-11-13T10:01:22.430Z,27.7
2017-11-13T10:02:22.268Z,27.9
2017-11-13T10:03:21.196Z,28
2017-11-13T10:04:22.502Z,28
2017-11-13T10:05:20.670Z,27.9
2017-11-13T10:06:22.403Z,27.8
2017-11-13T10:07:22.535Z,27.7
2017-11-13T10:08:23.111Z,27.6
2017-11-13T10:09:23.385Z,27.6
2017-11-13T10:10:22.345Z,27.6
2017-11-13T10:11:21.482Z,27.8
2017-11-13T10:12:21.317Z,27.9
2017-11-13T10:13:21.988Z,28.1
2017-11-13T10:14:23.359Z,28.4
2017-11-13T10:15:23.701Z,28.7
2017-11-13T10:16:22.943Z,29.1
2017-11-13T10:17:21.628Z,29.4
2017-11-13T10:18:21.823Z,29.5
2017-11-13T10:19:23.137Z,29.6
2017-11-13T10:20:23.494Z,29.9
2017-11-13T10:21:23.432Z,30.3
2017-11-13T10:22:22.336Z,30.7
2017-11-13T10:23:22.043Z,31.1
2017-11-13T10:24:23.273Z,31.5
2017-11-13T10:25:23.674Z,31.6
2017-11-13T10:26:22.080Z,31.4
2017-11-13T10:27:23.449Z,31.2
2017-11-13T10:28:24.551Z,30.9
2017-11-13T10:29:22.107Z,30.6
2017-11-13T10:30:21.836Z,30.3
2017-11-13T10:31:24.573Z,30.1
2017-11-13T10:32:24.570Z,30.1
2017-11-13T10:33:23.006Z,30.2
2017-11-13T10:34:24.777Z,30.4
2017-11-13T10:35:24.330Z,30.9
2017-11-13T10:36:22.548Z,31.5
2017-11-13T10:37:23.838Z,32.1
2017-11-13T10:38:23.235Z,32.6
2017-11-13T10:39:23.327Z,32.8
2017-11-13T10:40:24.711Z,32.8
2017-11-13T10:41:24.648Z,32.6
2017-11-13T10:42:25.210Z,32.2
2017-11-13T10:43:24.595Z,31.7
2017-11-13T10:44:23.297Z,31.3
2017-11-13T10:45:24.942Z,31
2017-11-13T10:46:24.927Z,30.8
2017-11-13T10:47:22.772Z,30.5
2017-11-13T10:48:24.758Z,30.3
2017-11-13T10:49:24.490Z,30
2017-11-13T10:50:25.293Z,29.9
2017-11-13T10:51:22.897Z,30.2
2017-11-13T10:52:22.885Z,30.9
2017-11-13T10:53:24.889Z,31.7
2017-11-13T10:54:24.636Z,32.5
2017-11-13T10:55:25.673Z,33.1
2017-11-13T10:56:23.324Z,33.8
2017-11-13T10:57:23.519Z,34.2
2017-11-13T10:58:23.868Z,34.6
2017-11-13T10:59:25.929Z,35
2017-11-13T11:00:25.162Z,35.4
2017-11-13T11:01:25.028Z,35.6
2017-11-13T11:02:24.317Z,36.2
2017-11-13T11:03:23.790Z,36.5
2017-11-13T11:04:24.184Z,36.8
2017-11-13T11:05:24.602Z,37.1
2017-11-13T11:06:24.075Z,37.3
2017-11-13T11:07:24.011Z,37.6
2017-11-13T11:08:23.944Z,37.9
2017-11-13T11:09:24.110Z,38.1
2017-11-13T11:10:26.360Z,38.2
2017-11-13T11:11:24.478Z,38.3
2017-11-13T11:12:24.061Z,38.5
2017-11-13T11:13:24.337Z,38.6
2017-11-13T11:14:25.981Z,38.7
2017-11-13T11:15:26.119Z,38.9
2017-11-13T11:16:24.340Z,38.6
2017-11-13T11:17:24.926Z,37.8
2017-11-13T11:18:24.896Z,36.8
2017-11-13T11:19:25.903Z,36
2017-11-13T11:20:25.433Z,35.2
2017-11-13T11:21:24.310Z,34.5
2017-11-13T11:22:24.533Z,34
2017-11-13T11:23:25.010Z,33.5
2017-11-13T11:24:26.318Z,33
2017-11-13T11:25:26.541Z,32.7
2017-11-13T11:26:25.735Z,32.3
2017-11-13T11:27:26.407Z,32
2017-11-13T11:28:26.789Z,31.8
2017-11-13T11:29:26.455Z,31.4
2017-11-13T11:30:27.529Z,31.1
2017-11-13T11:31:25.675Z,30.7
2017-11-13T11:32:24.819Z,30.3
2017-11-13T11:33:26.593Z,29.9
2017-11-13T11:34:27.342Z,29.4
2017-11-13T11:35:25.364Z,29.1
2017-11-13T11:36:24.982Z,28.9
2017-11-13T11:37:26.566Z,28.8
2017-11-13T11:38:24.906Z,28.6
2017-11-13T11:39:26.885Z,28.3
2017-11-13T11:40:27.034Z,28.1
2017-11-13T11:41:25.451Z,27.9
2017-11-13T11:42:25.678Z,27.8
2017-11-13T11:43:27.503Z,27.6
2017-11-13T11:44:27.312Z,27.5
2017-11-13T11:45:27.031Z,27.4
2017-11-13T11:46:27.247Z,27.2
2017-11-13T11:47:27.338Z,27.2
2017-11-13T11:48:26.098Z,27.3
2017-11-13T11:49:26.888Z,27.3
2017-11-13T11:50:25.526Z,27.1
2017-11-13T11:51:26.049Z,27.1
2017-11-13T11:52:27.978Z,27.1
2017-11-13T11:53:25.906Z,27.1
2017-11-13T11:54:27.553Z,27.1
2017-11-13T11:55:27.612Z,27
2017-11-13T11:56:28.643Z,27
2017-11-13T11:57:26.052Z,27
2017-11-13T11:58:26.244Z,26.9
2017-11-13T11:59:27.694Z,26.8
2017-11-13T12:00:27.776Z,26.8
2017-11-13T12:01:26.504Z,26.7
2017-11-13T12:02:27.640Z,26.6
2017-11-13T12:03:26.518Z,26.5
2017-11-13T12:04:26.656Z,26.5
2017-11-13T12:05:26.556Z,26.5
2017-11-13T12:06:28.121Z,26.5
2017-11-13T12:07:28.951Z,26.5
2017-11-13T12:08:29.164Z,26.4
2017-11-13T12:09:29.634Z,26.4
2017-11-13T12:10:27.082Z,26.5
2017-11-13T12:11:28.521Z,26.4
2017-11-13T12:12:28.382Z,26.4
2017-11-13T12:13:26.509Z,26.3
2017-11-13T12:14:28.228Z,26.2
2017-11-13T12:15:28.507Z,26.1
2017-11-13T12:16:26.713Z,26
2017-11-13T12:17:28.528Z,26
2017-11-13T12:18:27.467Z,25.9
2017-11-13T12:19:28.548Z,26
2017-11-13T12:20:29.290Z,26.1
2017-11-13T12:21:26.916Z,26.3
2017-11-13T12:22:27.053Z,26.4
2017-11-13T12:23:27.600Z,26.5
2017-11-13T12:24:27.137Z,26.6
2017-11-13T12:25:29.039Z,26.6
2017-11-13T12:26:29.299Z,26.6
2017-11-13T12:27:29.268Z,26.7
2017-11-13T12:28:27.797Z,26.6
2017-11-13T12:29:27.499Z,26.6
2017-11-13T12:30:29.407Z,26.6
2017-11-13T12:31:27.732Z,26.6
2017-11-13T12:32:28.139Z,26.7
2017-11-13T12:33:27.835Z,26.7
2017-11-13T12:34:29.535Z,26.6
2017-11-13T12:35:28.015Z,26.6
2017-11-13T12:36:27.744Z,26.6
2017-11-13T12:37:29.689Z,26.5
2017-11-13T12:38:27.919Z,26.6
2017-11-13T12:39:28.080Z,26.6
2017-11-13T12:40:28.099Z,26.8
2017-11-13T12:41:36.486Z,26.9
2017-11-13T12:42:27.856Z,27
2017-11-13T12:43:28.338Z,27.2
2017-11-13T12:44:28.031Z,27.3
2017-11-13T12:45:28.214Z,27.5
2017-11-13T12:46:28.383Z,27.6
2017-11-13T12:47:28.565Z,27.7
2017-11-13T12:48:30.088Z,27.8
2017-11-13T12:49:30.757Z,27.9
2017-11-13T12:50:28.987Z,28
2017-11-13T12:51:29.039Z,28
2017-11-13T12:52:30.384Z,28
2017-11-13T12:53:30.702Z,28
2017-11-13T12:54:30.612Z,28
2017-11-13T12:55:28.958Z,28
2017-11-13T12:56:30.571Z,28
2017-11-13T12:57:30.597Z,28
2017-11-13T12:58:31.149Z,28.1
2017-11-13T12:59:29.075Z,28.1
2017-11-13T13:00:30.964Z,28.1
2017-11-13T13:01:28.943Z,28
2017-11-13T13:02:29.330Z,28
2017-11-13T13:03:29.449Z,28
2017-11-13T13:04:31.236Z,27.9
2017-11-13T13:05:30.916Z,27.9
2017-11-13T13:06:29.470Z,27.8
2017-11-13T13:07:29.699Z,27.7
2017-11-13T13:08:29.344Z,27.7
2017-11-13T13:09:31.312Z,27.9
2017-11-13T13:10:29.522Z,28
2017-11-13T13:11:29.754Z,28
2017-11-13T13:12:31.232Z,27.9
2017-11-13T13:13:31.352Z,28
2017-11-13T13:14:31.564Z,27.9
2017-11-13T13:15:29.805Z,27.8
2017-11-13T13:16:31.332Z,27.8
2017-11-13T13:17:30.077Z,27.7
2017-11-13T13:18:30.123Z,27.6
2017-11-13T13:19:30.382Z,27.5
2017-11-13T13:20:29.960Z,27.6
2017-11-13T13:21:31.961Z,27.6
2017-11-13T13:22:30.237Z,27.7
2017-11-13T13:23:30.371Z,27.8
2017-11-13T13:24:30.858Z,27.8
2017-11-13T13:25:31.362Z,27.8
2017-11-13T13:26:30.563Z,27.9
2017-11-13T13:27:32.616Z,27.9
2017-11-13T13:28:33.843Z,27.9
2017-11-13T13:29:30.758Z,27.8